Windcrest, TX

10:31 AM CST on February 21, 2017 (GMT -0600)
| | Change Station
Active Advisory: Flood Warning Active Notice: Public Information Statement

Elev -9999 ft 0.00 °N, 0.00 °E | Updated 0 second ago

Clear
Clear
°F
Feels Like °F
N
Wind Variable Wind from North
Gusts mph

Today
High -- | Low -- °F
--% Chance of Precip.
Yesterday
High -- | Low -- °F
Precip. -- in
Pressure 30.02 in
Visibility 10.0 miles
Clouds Clear
Dew Point Not available.
Humidity Not available.
Rainfall --
Snow Depth Not available.
7:06 AM 6:27 PM
Waning Crescent, 24% visible
METAR KSAT 211551Z 34012KT 10SM CLR 22/01 A3006 RMK AO2 SLP165 T02170006 $
Pressure 30.02 in
Visibility 10.0 miles
Clouds Clear
Dew Point Not available.
Humidity Not available.
Rainfall --
Snow Depth Not available.
7:06 AM 6:27 PM
Waning Crescent, 24% visible
METAR KSAT 211551Z 34012KT 10SM CLR 22/01 A3006 RMK AO2 SLP165 T02170006 $

Get Your Daily Forecast Email!

Thanks for signing up!

Be on the lookout for a verification email in your inbox.

You'll start receiving the daily forecast at 8 AM.

×

10-Day Weather Forecast

Almanac

Astronomy

Feb. 21, 2017 Rise Set
Actual Time
Civil Twilight
Nautical Twilight
Astronomical Twilight
Moon
Length of Visible Light
Length of Day
Tomorrow will be .
, % of the Moon is Illuminated

Today's Extremes

State Highs State Lows

Community

WunderPhotos

Upload Photos

1,962,540 photos uploaded!

WunderBlog® & News

Nearby

Air Quality

  Air Quality AQ Index Pollutant
Not available.

Snow Depth

Station Depth Elevation

Earthquake Activity

City Distance Mag. Time & Date
Minimum magnitude displayed is 2.5.

Coastal Water Temperatures

Place Temperature

Stations

Nearby Weather Stations

Station Location Temp. Windchill Dew Point Humidity Wind Precip. Elev Updated Type
                   

Watches & Warnings

Flood Warning
Issued: 10:13 PM CST Feb. 20, 2017 – National Weather Service

the Flood Warning continues for
the San Antonio River near Elmendorf.
* At 9:30 PM Monday the stage was 35.8 feet.
* Flood stage is 35.0 feet.
* Minor flooding is occurring and minor flooding is forecast.
* Forecast... the river will remain steady near 35.8 feet before dropping below
flood stage by 10 am Tuesday morning.
* Impact... at 35.0 feet... minor lowland flooding inundates crop and pastureland
below San Antonio to below Floresville..


Below are the latest river stages and forecasts:


                    bf fld observed forecast 7am
location stg stg stg day time Tue Wed Thu Fri Sat
Elmendorf 33 35 35.8 Mon 09 PM 35.8 21.9 16.6 15.1 14.5



Lat... Lon 2919 9838 2926 9835 2924 9821 2918 9813
      2911 9820 2918 9826


Bmw